createdAt,value
2024-04-18T00:01:37.118Z,6.05
2024-04-18T00:04:04.467Z,6.04
2024-04-18T00:06:33.566Z,6.03
2024-04-18T00:09:03.164Z,6.02
2024-04-18T00:11:32.488Z,6.01
2024-04-18T00:13:59.635Z,6.00
2024-04-18T00:16:37.992Z,5.99
2024-04-18T00:19:22.324Z,5.97
2024-04-18T00:22:04.320Z,5.96
2024-04-18T00:24:31.683Z,5.95
2024-04-18T00:27:01.023Z,5.94
2024-04-18T00:29:41.124Z,5.93
2024-04-18T00:32:11.429Z,5.92
2024-04-18T00:34:40.888Z,5.91
2024-04-18T00:37:30.255Z,5.88
2024-04-18T00:40:04.690Z,5.84
2024-04-18T00:42:39.246Z,5.80
2024-04-18T00:45:07.139Z,5.77
2024-04-18T00:47:51.414Z,5.73
2024-04-18T00:50:20.436Z,5.70
2024-04-18T00:52:47.697Z,5.68
2024-04-18T00:55:32.672Z,5.65
2024-04-18T00:58:12.001Z,5.62
2024-04-18T01:00:43.424Z,5.60
2024-04-18T01:03:32.110Z,5.57
2024-04-18T01:06:08.868Z,5.54
2024-04-18T01:08:59.907Z,5.50
2024-04-18T01:11:31.304Z,5.46
2024-04-18T01:14:00.383Z,5.43
2024-04-18T01:16:34.486Z,5.39
2024-04-18T01:19:06.508Z,5.36
2024-04-18T01:21:33.823Z,5.33
2024-04-18T01:24:03.391Z,5.29
2024-04-18T01:26:30.562Z,5.28
2024-04-18T01:28:57.706Z,5.25
2024-04-18T01:31:50.557Z,5.23
2024-04-18T01:34:22.133Z,5.20
2024-04-18T01:37:09.589Z,5.18
2024-04-18T01:39:39.316Z,5.17
2024-04-18T01:42:09.357Z,5.15
2024-04-18T01:44:42.972Z,5.15
2024-04-18T01:47:31.303Z,5.14
2024-04-18T01:50:08.002Z,5.13
2024-04-18T01:52:35.259Z,5.11
2024-04-18T01:55:12.785Z,5.07
2024-04-18T01:57:42.396Z,5.02
2024-04-18T02:00:30.574Z,4.96
2024-04-18T02:03:03.118Z,4.91
2024-04-18T02:05:52.671Z,4.87
2024-04-18T02:08:42.289Z,4.83
2024-04-18T02:11:18.033Z,4.80
2024-04-18T02:14:05.257Z,4.76
2024-04-18T02:16:35.388Z,4.74
2024-04-18T02:19:21.128Z,4.74
2024-04-18T02:22:13.344Z,4.74
2024-04-18T02:25:00.521Z,4.74
2024-04-18T02:27:29.821Z,4.76
2024-04-18T02:30:17.106Z,4.73
2024-04-18T02:32:48.742Z,4.69
2024-04-18T02:35:15.937Z,4.64
2024-04-18T02:38:01.158Z,4.61
2024-04-18T02:40:31.316Z,4.60
2024-04-18T02:43:02.523Z,4.60
2024-04-18T02:45:34.885Z,4.58
2024-04-18T02:48:23.070Z,4.56
2024-04-18T02:50:50.303Z,4.54
2024-04-18T02:53:19.670Z,4.52
2024-04-18T02:56:08.313Z,4.51
2024-04-18T02:58:37.581Z,4.48
2024-04-18T03:01:16.685Z,4.46
2024-04-18T03:03:48.624Z,4.45
2024-04-18T03:06:15.933Z,4.43
2024-04-18T03:08:46.763Z,4.42
2024-04-18T03:11:23.811Z,4.42
2024-04-18T03:14:09.344Z,4.45
2024-04-18T03:16:38.939Z,4.47
2024-04-18T03:19:20.599Z,4.51
2024-04-18T03:21:56.191Z,4.53
2024-04-18T03:24:24.410Z,4.57
2024-04-18T03:26:56.486Z,4.60
2024-04-18T03:29:28.813Z,4.65
2024-04-18T03:32:03.994Z,4.70
2024-04-18T03:34:46.453Z,4.74
2024-04-18T03:37:15.875Z,4.76
2024-04-18T03:39:45.242Z,4.78
2024-04-18T03:42:14.890Z,4.80
2024-04-18T03:44:55.087Z,4.82
2024-04-18T03:47:22.398Z,4.84
2024-04-18T03:50:09.032Z,4.87
2024-04-18T03:52:41.581Z,4.89
2024-04-18T03:55:39.379Z,4.90
2024-04-18T03:58:06.583Z,4.89
2024-04-18T04:00:53.807Z,4.88
2024-04-18T04:03:23.406Z,4.86
2024-04-18T04:05:52.898Z,4.84
2024-04-18T04:08:24.338Z,4.80
2024-04-18T04:11:10.341Z,4.76
2024-04-18T04:13:37.570Z,4.73
2024-04-18T04:16:17.055Z,4.70
2024-04-18T04:18:51.851Z,4.67
2024-04-18T04:21:38.087Z,4.64
2024-04-18T04:24:10.338Z,4.61
2024-04-18T04:26:50.309Z,4.59
2024-04-18T04:29:19.644Z,4.56
2024-04-18T04:31:49.276Z,4.53
2024-04-18T04:34:22.145Z,4.49
2024-04-18T04:36:51.457Z,4.47
2024-04-18T04:39:21.421Z,4.44
2024-04-18T04:41:53.327Z,4.41
2024-04-18T04:44:23.447Z,4.39
2024-04-18T04:46:54.904Z,4.37
2024-04-18T04:49:24.746Z,4.35
2024-04-18T04:52:06.975Z,4.33
2024-04-18T04:54:48.684Z,4.32
2024-04-18T04:57:18.167Z,4.30
2024-04-18T05:00:08.254Z,4.28
2024-04-18T05:02:55.381Z,4.28
2024-04-18T05:05:27.973Z,4.29
2024-04-18T05:08:04.142Z,4.30
2024-04-18T05:10:45.074Z,4.32
2024-04-18T05:13:12.646Z,4.34
2024-04-18T05:15:45.382Z,4.38
2024-04-18T05:18:29.835Z,4.42
2024-04-18T05:20:59.260Z,4.47
2024-04-18T05:23:26.640Z,4.53
2024-04-18T05:25:53.847Z,4.56
2024-04-18T05:28:31.913Z,4.62
2024-04-18T05:31:03.342Z,4.80
2024-04-18T05:33:33.813Z,5.48
2024-04-18T05:36:04.584Z,6.43
2024-04-18T05:38:34.328Z,7.16
2024-04-18T05:41:06.036Z,7.50
2024-04-18T05:43:51.686Z,7.85
2024-04-18T05:46:21.056Z,8.03
2024-04-18T05:48:53.100Z,8.12
2024-04-18T05:51:22.866Z,8.78
2024-04-18T05:54:10.008Z,11.91
2024-04-18T05:56:59.479Z,13.81
2024-04-18T05:59:46.616Z,15.10
2024-04-18T06:02:16.021Z,15.75
2024-04-18T06:04:43.274Z,16.90
2024-04-18T06:07:29.426Z,17.12
2024-04-18T06:09:56.647Z,17.24
2024-04-18T06:12:23.916Z,17.56
2024-04-18T06:14:55.358Z,17.80
2024-04-18T06:17:24.864Z,18.01
2024-04-18T06:19:54.943Z,18.29
2024-04-18T06:22:33.616Z,18.77
2024-04-18T06:25:19.475Z,19.00
2024-04-18T06:27:50.886Z,19.17
2024-04-18T06:30:20.794Z,19.19
2024-04-18T06:32:53.304Z,17.98
2024-04-18T06:35:20.488Z,16.33
2024-04-18T06:37:49.136Z,15.10
2024-04-18T06:40:22.215Z,13.05
2024-04-18T06:42:53.147Z,11.42
2024-04-18T06:45:23.327Z,10.62
2024-04-18T06:47:53.809Z,9.66
2024-04-18T06:50:24.226Z,9.41
2024-04-18T06:52:55.952Z,9.30
2024-04-18T06:55:25.199Z,9.13
2024-04-18T06:57:52.461Z,8.99
2024-04-18T07:00:21.898Z,8.85
2024-04-18T07:02:49.089Z,8.71
2024-04-18T07:05:35.277Z,8.63
2024-04-18T07:08:23.427Z,8.58
2024-04-18T07:10:53.271Z,8.56
2024-04-18T07:13:35.224Z,8.55
2024-04-18T07:16:26.262Z,8.55
2024-04-18T07:18:58.726Z,8.58
2024-04-18T07:21:28.069Z,8.66
2024-04-18T07:24:19.163Z,9.12
2024-04-18T07:26:47.834Z,10.00
2024-04-18T07:29:15.024Z,10.56
2024-04-18T07:31:44.623Z,11.16
2024-04-18T07:34:17.838Z,12.73
2024-04-18T07:36:50.079Z,13.42
2024-04-18T07:39:17.520Z,13.41
2024-04-18T07:41:51.412Z,13.31
2024-04-18T07:44:20.678Z,13.08
2024-04-18T07:46:56.275Z,12.65
2024-04-18T07:49:25.753Z,12.46
2024-04-18T07:51:57.477Z,12.49
2024-04-18T07:54:25.240Z,12.60
2024-04-18T07:56:52.772Z,12.73
2024-04-18T07:59:20.636Z,13.39
2024-04-18T08:01:53.877Z,14.30
2024-04-18T08:04:44.583Z,15.19
2024-04-18T08:07:11.748Z,15.59
2024-04-18T08:09:46.402Z,15.88
2024-04-18T08:12:24.406Z,15.87
2024-04-18T08:15:04.388Z,15.76
2024-04-18T08:17:39.844Z,15.76
2024-04-18T08:20:11.689Z,15.88
2024-04-18T08:22:38.919Z,15.96
2024-04-18T08:25:08.848Z,16.04
2024-04-18T08:27:38.327Z,15.96
2024-04-18T08:30:05.840Z,15.88
2024-04-18T08:32:33.102Z,15.85
2024-04-18T08:35:00.340Z,15.75
2024-04-18T08:37:29.919Z,15.73
2024-04-18T08:39:57.056Z,15.73
2024-04-18T08:42:27.599Z,15.71
2024-04-18T08:44:58.354Z,15.68
2024-04-18T08:47:29.604Z,15.58
2024-04-18T08:49:57.429Z,15.42
2024-04-18T08:52:28.341Z,15.33
2024-04-18T08:54:56.258Z,15.21
2024-04-18T08:57:28.935Z,14.91
2024-04-18T08:59:59.733Z,14.07
2024-04-18T09:02:29.488Z,13.70
2024-04-18T09:04:59.998Z,13.31
2024-04-18T09:07:27.156Z,13.24
2024-04-18T09:10:03.094Z,13.21
2024-04-18T09:12:32.829Z,13.24
2024-04-18T09:15:02.517Z,13.28
2024-04-18T09:17:32.258Z,13.33
2024-04-18T09:20:04.886Z,13.25
2024-04-18T09:22:32.119Z,12.99
2024-04-18T09:24:59.471Z,12.74
2024-04-18T09:27:26.640Z,12.66
2024-04-18T09:29:56.137Z,12.75
2024-04-18T09:32:24.145Z,12.87
2024-04-18T09:34:52.015Z,13.00
2024-04-18T09:37:19.422Z,13.08
2024-04-18T09:39:52.382Z,13.10
2024-04-18T09:42:38.074Z,13.18
2024-04-18T09:45:14.035Z,13.26
2024-04-18T09:47:42.280Z,13.46
2024-04-18T09:50:13.696Z,13.61
2024-04-18T09:52:43.892Z,13.63
2024-04-18T09:55:14.934Z,13.57
2024-04-18T09:57:46.945Z,13.56
2024-04-18T10:00:16.030Z,13.54
2024-04-18T10:02:47.657Z,13.40
2024-04-18T10:05:15.364Z,13.41
2024-04-18T10:07:44.390Z,13.48
2024-04-18T10:10:16.428Z,13.46
2024-04-18T10:12:43.742Z,13.34
2024-04-18T10:15:18.907Z,13.28
2024-04-18T10:17:51.277Z,13.45
2024-04-18T10:20:27.446Z,13.62
2024-04-18T10:23:01.468Z,13.78
2024-04-18T10:25:38.591Z,13.74
2024-04-18T10:28:17.983Z,13.56
2024-04-18T10:30:45.190Z,13.45
2024-04-18T10:33:12.448Z,13.46
2024-04-18T10:35:40.504Z,13.61
2024-04-18T10:38:07.629Z,13.74
2024-04-18T10:40:57.246Z,13.78
2024-04-18T10:43:28.203Z,13.88
2024-04-18T10:46:01.641Z,13.90
2024-04-18T10:48:29.051Z,13.92
2024-04-18T10:50:56.458Z,13.99
2024-04-18T10:53:28.437Z,13.98
2024-04-18T10:56:00.244Z,13.77
2024-04-18T10:58:27.910Z,13.67
2024-04-18T11:01:00.879Z,13.76
2024-04-18T11:03:28.738Z,13.99
2024-04-18T11:06:02.342Z,14.18
2024-04-18T11:08:35.001Z,14.47
2024-04-18T11:11:04.387Z,14.58
2024-04-18T11:13:34.172Z,14.63
2024-04-18T11:16:01.347Z,14.74
2024-04-18T11:18:31.941Z,14.98
2024-04-18T11:20:59.250Z,15.30
2024-04-18T11:23:35.831Z,15.35
2024-04-18T11:26:16.396Z,15.35
2024-04-18T11:28:43.636Z,15.11
2024-04-18T11:31:10.813Z,14.75
2024-04-18T11:33:41.831Z,14.25
2024-04-18T11:36:11.644Z,13.84
2024-04-18T11:38:43.399Z,13.46
2024-04-18T11:41:12.968Z,13.34
2024-04-18T11:43:43.002Z,13.31
2024-04-18T11:46:11.068Z,13.34
2024-04-18T11:48:45.448Z,13.62
2024-04-18T11:51:17.178Z,14.11
2024-04-18T11:53:49.262Z,14.51
2024-04-18T11:56:34.556Z,14.55
2024-04-18T11:59:04.835Z,14.47
2024-04-18T12:01:34.241Z,14.38
2024-04-18T12:04:22.248Z,14.42
2024-04-18T12:06:52.313Z,14.61
2024-04-18T12:09:32.267Z,14.88
2024-04-18T12:12:03.990Z,15.05
2024-04-18T12:14:56.002Z,15.40
2024-04-18T12:17:31.589Z,15.76
2024-04-18T12:20:22.120Z,15.87
2024-04-18T12:22:51.708Z,15.83
2024-04-18T12:25:19.354Z,15.59
2024-04-18T12:27:49.175Z,15.20
2024-04-18T12:30:36.924Z,14.77
2024-04-18T12:33:20.128Z,14.22
2024-04-18T12:35:52.710Z,14.03
2024-04-18T12:38:22.537Z,13.82
2024-04-18T12:40:59.661Z,13.59
2024-04-18T12:43:27.642Z,13.49
2024-04-18T12:46:10.078Z,13.42
2024-04-18T12:48:57.474Z,13.39
2024-04-18T12:51:27.676Z,13.40
2024-04-18T12:53:57.216Z,13.39
2024-04-18T12:56:48.782Z,13.41
2024-04-18T12:59:22.392Z,13.42
2024-04-18T13:01:49.639Z,13.46
2024-04-18T13:04:20.151Z,13.47
2024-04-18T13:06:47.453Z,13.47
2024-04-18T13:09:33.558Z,13.41
2024-04-18T13:12:04.441Z,13.27
2024-04-18T13:14:55.414Z,13.20
2024-04-18T13:17:25.111Z,13.14
2024-04-18T13:19:55.115Z,13.13
2024-04-18T13:22:24.511Z,13.07
2024-04-18T13:24:54.196Z,13.01
2024-04-18T13:27:28.598Z,12.92
2024-04-18T13:30:00.630Z,12.86
2024-04-18T13:32:35.056Z,12.82
2024-04-18T13:35:04.866Z,12.78
2024-04-18T13:37:37.647Z,12.71
2024-04-18T13:40:19.088Z,12.65
2024-04-18T13:43:01.038Z,12.61
2024-04-18T13:45:33.855Z,12.59
2024-04-18T13:48:07.258Z,12.57
2024-04-18T13:50:49.586Z,12.52
2024-04-18T13:53:19.199Z,12.49
2024-04-18T13:55:52.439Z,12.46
2024-04-18T13:58:21.486Z,12.50
2024-04-18T14:01:01.833Z,12.57
2024-04-18T14:03:29.812Z,12.73
2024-04-18T14:06:08.844Z,12.82
2024-04-18T14:08:36.646Z,12.92
2024-04-18T14:11:28.292Z,12.99
2024-04-18T14:14:09.183Z,13.00
2024-04-18T14:17:15.461Z,12.93
2024-04-18T14:20:02.258Z,12.84
2024-04-18T14:22:33.920Z,12.75
2024-04-18T14:25:03.360Z,12.66
2024-04-18T14:27:35.481Z,12.60
2024-04-18T14:30:03.147Z,12.53
2024-04-18T14:32:38.685Z,12.44
2024-04-18T14:35:08.937Z,12.28
2024-04-18T14:37:41.072Z,12.18
2024-04-18T14:40:10.902Z,12.06
2024-04-18T14:42:40.594Z,11.95
2024-04-18T14:45:12.073Z,11.92
2024-04-18T14:47:42.258Z,11.93
2024-04-18T14:50:11.858Z,11.99
2024-04-18T14:52:39.105Z,12.07
2024-04-18T14:55:34.070Z,12.15
2024-04-18T14:58:20.951Z,12.22
2024-04-18T15:00:52.241Z,12.29
2024-04-18T15:03:22.645Z,12.36
2024-04-18T15:06:13.672Z,12.44
2024-04-18T15:08:42.110Z,12.49
2024-04-18T15:11:28.236Z,12.43
2024-04-18T15:14:05.909Z,12.44
2024-04-18T15:16:35.375Z,12.51
2024-04-18T15:19:02.650Z,12.51
2024-04-18T15:21:52.237Z,12.50
2024-04-18T15:24:26.384Z,12.47
2024-04-18T15:27:04.452Z,12.43
2024-04-18T15:29:34.717Z,12.40
2024-04-18T15:32:21.626Z,12.34
2024-04-18T15:34:51.731Z,12.27
2024-04-18T15:37:46.821Z,12.22
2024-04-18T15:40:31.898Z,12.19
2024-04-18T15:43:07.717Z,12.14
2024-04-18T15:45:41.243Z,12.13
2024-04-18T15:48:27.760Z,12.12
2024-04-18T15:50:57.354Z,12.13
2024-04-18T15:53:30.653Z,12.15
2024-04-18T15:56:09.406Z,12.16
2024-04-18T15:58:55.756Z,12.19
2024-04-18T16:01:23.679Z,12.19
2024-04-18T16:04:09.672Z,12.21
2024-04-18T16:06:58.459Z,12.21
2024-04-18T16:09:44.619Z,12.17
2024-04-18T16:12:23.601Z,12.12
2024-04-18T16:15:06.025Z,12.05
2024-04-18T16:17:35.992Z,11.94
2024-04-18T16:20:13.883Z,11.87
2024-04-18T16:22:46.609Z,11.81
2024-04-18T16:25:39.213Z,11.80
2024-04-18T16:28:10.830Z,11.79
2024-04-18T16:31:01.531Z,11.77
2024-04-18T16:33:28.881Z,11.71
2024-04-18T16:35:56.026Z,11.64
2024-04-18T16:38:28.786Z,11.58
2024-04-18T16:40:56.021Z,11.54
2024-04-18T16:43:36.317Z,11.50
2024-04-18T16:46:08.399Z,11.46
2024-04-18T16:48:40.048Z,11.42
2024-04-18T16:51:12.199Z,11.37
2024-04-18T16:53:55.832Z,11.30
2024-04-18T16:56:25.730Z,11.26
2024-04-18T16:58:56.325Z,11.27
2024-04-18T17:01:23.669Z,11.26
2024-04-18T17:03:53.501Z,11.23
2024-04-18T17:06:45.327Z,11.20
2024-04-18T17:09:18.593Z,11.18
2024-04-18T17:11:46.223Z,11.15
2024-04-18T17:14:34.369Z,11.12
2024-04-18T17:17:01.795Z,11.06
2024-04-18T17:19:49.059Z,11.02
2024-04-18T17:22:20.418Z,10.96
2024-04-18T17:24:47.646Z,10.90
2024-04-18T17:27:14.948Z,10.86
2024-04-18T17:29:45.368Z,10.79
2024-04-18T17:32:14.820Z,10.74
2024-04-18T17:34:44.395Z,10.68
2024-04-18T17:37:13.830Z,10.65
2024-04-18T17:39:53.574Z,10.63
2024-04-18T17:42:24.249Z,10.62
2024-04-18T17:44:57.192Z,10.60
2024-04-18T17:47:29.990Z,10.58
2024-04-18T17:50:01.014Z,10.56
2024-04-18T17:52:32.804Z,10.52
2024-04-18T17:55:02.729Z,10.47
2024-04-18T17:57:32.527Z,10.43
2024-04-18T18:00:20.309Z,10.39
2024-04-18T18:02:53.478Z,10.36
2024-04-18T18:05:37.380Z,10.31
2024-04-18T18:08:25.152Z,10.27
2024-04-18T18:10:53.353Z,10.26
2024-04-18T18:13:25.649Z,10.25
2024-04-18T18:15:55.207Z,10.23
2024-04-18T18:18:26.883Z,10.22
2024-04-18T18:20:54.205Z,10.18
2024-04-18T18:23:30.099Z,10.16
2024-04-18T18:25:57.307Z,10.13
2024-04-18T18:28:26.922Z,10.09
2024-04-18T18:31:02.839Z,10.07
2024-04-18T18:33:30.152Z,10.05
2024-04-18T18:35:59.791Z,10.03
2024-04-18T18:38:29.496Z,9.99
2024-04-18T18:41:01.094Z,9.96
2024-04-18T18:43:30.638Z,9.93
2024-04-18T18:45:57.742Z,9.90
2024-04-18T18:48:25.125Z,9.87
2024-04-18T18:51:07.318Z,9.82
2024-04-18T18:53:34.689Z,9.76
2024-04-18T18:56:04.456Z,9.72
2024-04-18T18:58:55.068Z,9.67
2024-04-18T19:01:25.070Z,9.64
2024-04-18T19:04:17.755Z,9.60
2024-04-18T19:06:49.412Z,9.56
2024-04-18T19:09:17.015Z,9.52
2024-04-18T19:11:44.457Z,9.48
2024-04-18T19:14:14.067Z,9.46
2024-04-18T19:17:03.314Z,9.43
2024-04-18T19:19:35.313Z,9.41
2024-04-18T19:22:05.131Z,9.38
2024-04-18T19:24:32.429Z,9.35
2024-04-18T19:27:02.543Z,9.32
2024-04-18T19:29:39.748Z,9.30
2024-04-18T19:32:17.115Z,9.25
2024-04-18T19:34:44.377Z,9.22
2024-04-18T19:37:11.601Z,9.18
2024-04-18T19:39:41.086Z,9.15
2024-04-18T19:42:10.919Z,9.12
2024-04-18T19:44:40.366Z,9.09
2024-04-18T19:47:09.655Z,9.05
2024-04-18T19:49:39.342Z,9.02
2024-04-18T19:52:13.513Z,8.98
2024-04-18T19:54:45.234Z,8.94
2024-04-18T19:57:14.852Z,8.90
2024-04-18T19:59:44.303Z,8.87
2024-04-18T20:02:16.181Z,8.84
2024-04-18T20:04:45.532Z,8.81
2024-04-18T20:07:12.733Z,8.80
2024-04-18T20:09:39.951Z,8.78
2024-04-18T20:12:11.656Z,8.76
2024-04-18T20:15:01.134Z,8.74
2024-04-18T20:17:30.512Z,8.71
2024-04-18T20:19:57.750Z,8.68
2024-04-18T20:22:28.573Z,8.66
2024-04-18T20:25:00.288Z,8.62
2024-04-18T20:27:40.168Z,8.60
2024-04-18T20:30:12.886Z,8.59
2024-04-18T20:33:03.128Z,8.57
2024-04-18T20:35:32.704Z,8.54
2024-04-18T20:38:04.312Z,8.53
2024-04-18T20:40:31.450Z,8.50
2024-04-18T20:43:03.196Z,8.49
2024-04-18T20:45:35.658Z,8.48
2024-04-18T20:48:07.955Z,8.46
2024-04-18T20:50:37.635Z,8.45
2024-04-18T20:53:07.279Z,8.43
2024-04-18T20:55:36.884Z,8.40
2024-04-18T20:58:06.269Z,8.37
2024-04-18T21:00:35.858Z,8.34
2024-04-18T21:03:03.049Z,8.30
2024-04-18T21:05:32.712Z,8.25
2024-04-18T21:07:59.777Z,8.19
2024-04-18T21:10:26.904Z,8.16
2024-04-18T21:12:56.564Z,8.11
2024-04-18T21:15:26.207Z,8.09
2024-04-18T21:17:55.088Z,8.05
2024-04-18T21:20:25.334Z,8.03
2024-04-18T21:22:54.921Z,8.03
2024-04-18T21:25:26.261Z,8.02
2024-04-18T21:27:53.397Z,8.01
2024-04-18T21:30:22.961Z,8.01
2024-04-18T21:32:57.168Z,8.00
2024-04-18T21:35:33.330Z,8.00
2024-04-18T21:38:05.133Z,7.99
2024-04-18T21:40:32.345Z,7.97
2024-04-18T21:43:04.903Z,7.95
2024-04-18T21:45:35.427Z,7.94
2024-04-18T21:48:02.785Z,7.91
2024-04-18T21:50:32.140Z,7.89
2024-04-18T21:53:06.372Z,7.89
2024-04-18T21:55:40.933Z,7.89
2024-04-18T21:58:13.165Z,7.88
2024-04-18T22:00:42.800Z,7.87
2024-04-18T22:03:12.374Z,7.86
2024-04-18T22:05:42.367Z,7.86
2024-04-18T22:08:10.375Z,7.88
2024-04-18T22:10:37.486Z,7.88
2024-04-18T22:13:04.654Z,7.89
2024-04-18T22:15:34.939Z,7.89
2024-04-18T22:18:02.410Z,7.89
2024-04-18T22:20:32.072Z,7.89
2024-04-18T22:23:19.172Z,7.91
2024-04-18T22:25:46.390Z,7.90
2024-04-18T22:28:15.878Z,7.89
2024-04-18T22:30:46.929Z,7.88
2024-04-18T22:33:17.196Z,7.87
2024-04-18T22:35:46.482Z,7.85
2024-04-18T22:38:13.751Z,7.82
2024-04-18T22:40:43.315Z,7.79
2024-04-18T22:43:10.745Z,7.77
2024-04-18T22:45:40.482Z,7.75
2024-04-18T22:48:08.100Z,7.73
2024-04-18T22:50:36.275Z,7.70
2024-04-18T22:53:03.595Z,7.67
2024-04-18T22:55:33.095Z,7.60
2024-04-18T22:58:05.071Z,7.56
2024-04-18T23:00:35.430Z,7.49
2024-04-18T23:03:04.814Z,7.43
2024-04-18T23:05:42.337Z,7.38
2024-04-18T23:08:09.486Z,7.32
2024-04-18T23:10:36.635Z,7.30
2024-04-18T23:13:10.842Z,7.29
2024-04-18T23:15:47.392Z,7.27
2024-04-18T23:18:21.448Z,7.24
2024-04-18T23:20:51.756Z,7.21
2024-04-18T23:23:21.377Z,7.19
2024-04-18T23:25:50.782Z,7.17
2024-04-18T23:28:17.931Z,7.17
2024-04-18T23:30:47.337Z,7.15
2024-04-18T23:33:16.842Z,7.14
2024-04-18T23:35:51.468Z,7.09
2024-04-18T23:38:21.059Z,7.06
2024-04-18T23:40:48.367Z,7.04
2024-04-18T23:43:21.190Z,7.03
2024-04-18T23:45:51.034Z,7.04
2024-04-18T23:48:20.428Z,7.04
2024-04-18T23:50:50.012Z,7.04
2024-04-18T23:53:19.609Z,7.04
2024-04-18T23:55:49.072Z,7.03
2024-04-18T23:58:16.253Z,7.03
